Time;durP1;ratioP1;P1;durP2;ratioP2;P2;SDS_P1;SDS_P2;PMS_P1;PMS_P2;Temp;Humidity;BMP_temperature;BMP_pressure;BME280_temperature;BME280_humidity;BME280_pressure;Samples;Min_cycle;Max_cycle;Signal;HPM_P1;HPM_P2
2024/03/29 00:01:10;;;;;;;28.23;19.08;;;;;;;;;;10064518;28;20136;-68
2024/03/29 00:06:03;;;;;;;23.50;15.38;;;;;;;;;;10069826;28;20068;-67
2024/03/29 00:10:55;;;;;;;25.50;19.38;;;;;;;;;;10065615;28;20485;-68
2024/03/29 00:15:48;;;;;;;23.30;18.23;;;;;;;;;;10064015;28;20064;-69
2024/03/29 00:20:41;;;;;;;24.77;18.50;;;;;;;;;;10072710;28;20543;-69
2024/03/29 00:25:34;;;;;;;19.30;15.38;;;;;;;;;;10056928;28;20045;-69
2024/03/29 00:30:26;;;;;;;23.65;14.32;;;;;;;;;;10063787;28;20037;-68
2024/03/29 00:35:20;;;;;;;26.60;16.83;;;;;;;;;;10063194;28;20094;-69
2024/03/29 00:40:13;;;;;;;20.92;15.35;;;;;;;;;;10074620;28;20041;-67
2024/03/29 00:45:07;;;;;;;19.98;13.32;;;;;;;;;;10057331;28;20183;-67
2024/03/29 00:50:00;;;;;;;18.00;14.52;;;;;;;;;;10067415;28;20425;-67
2024/03/29 00:54:52;;;;;;;19.73;13.43;;;;;;;;;;10081247;28;20049;-67
2024/03/29 00:59:45;;;;;;;18.50;12.60;;;;;;;;;;10090324;28;20048;-67
2024/03/29 01:04:40;;;;;;;16.17;10.10;;;;;;;;;;10086312;28;20052;-67
2024/03/29 01:09:32;;;;;;;16.60;11.90;;;;;;;;;;10080570;28;20132;-67
2024/03/29 01:14:25;;;;;;;19.90;11.40;;;;;;;;;;10082553;28;20703;-67
2024/03/29 01:19:17;;;;;;;15.02;10.48;;;;;;;;;;10088110;28;20094;-67
2024/03/29 01:24:09;;;;;;;18.42;13.93;;;;;;;;;;10093744;28;20053;-67
2024/03/29 01:29:02;;;;;;;13.60;11.27;;;;;;;;;;10089897;28;20053;-67
2024/03/29 01:33:57;;;;;;;16.15;10.55;;;;;;;;;;10084715;28;20045;-69
2024/03/29 01:38:52;;;;;;;14.23;8.63;;;;;;;;;;10089554;28;20045;-68
2024/03/29 01:43:45;;;;;;;10.93;8.85;;;;;;;;;;10080619;28;20045;-67
2024/03/29 01:48:38;;;;;;;10.75;6.72;;;;;;;;;;10089942;28;20044;-67
2024/03/29 01:53:30;;;;;;;13.48;6.68;;;;;;;;;;10060441;28;20048;-67
2024/03/29 01:58:23;;;;;;;10.48;6.50;;;;;;;;;;10064986;28;20127;-67
2024/03/29 02:03:16;;;;;;;9.68;6.15;;;;;;;;;;10066436;28;20049;-68
2024/03/29 02:08:08;;;;;;;10.20;5.68;;;;;;;;;;10072077;28;20063;-68
2024/03/29 02:13:00;;;;;;;9.57;6.50;;;;;;;;;;10064857;28;20044;-67
2024/03/29 02:17:52;;;;;;;6.50;4.38;;;;;;;;;;10073056;28;20049;-67
2024/03/29 02:22:55;;;;;;;10.30;6.05;;;;;;;;;;10061212;28;20504;-67
2024/03/29 02:27:52;;;;;;;6.50;4.80;;;;;;;;;;10074549;28;20053;-67
2024/03/29 02:32:44;;;;;;;14.30;6.43;;;;;;;;;;10059637;28;20486;-67
2024/03/29 02:37:37;;;;;;;10.40;5.22;;;;;;;;;;10069108;28;20059;-68
2024/03/29 02:42:30;;;;;;;9.07;4.55;;;;;;;;;;10068680;28;20051;-68
2024/03/29 02:47:22;;;;;;;8.82;5.55;;;;;;;;;;10068817;28;20444;-68
2024/03/29 02:52:14;;;;;;;12.90;6.05;;;;;;;;;;10067781;28;20429;-67
2024/03/29 02:57:07;;;;;;;14.02;4.50;;;;;;;;;;10062482;28;20497;-67
2024/03/29 03:02:00;;;;;;;7.05;5.28;;;;;;;;;;10069278;28;20052;-68
2024/03/29 03:06:52;;;;;;;7.18;4.28;;;;;;;;;;10074596;28;20056;-68
2024/03/29 03:11:45;;;;;;;10.13;4.57;;;;;;;;;;10065781;28;20466;-68
2024/03/29 03:16:38;;;;;;;10.10;5.05;;;;;;;;;;10052467;28;20041;-67
2024/03/29 03:21:31;;;;;;;12.75;5.57;;;;;;;;;;10067110;28;20193;-68
2024/03/29 03:26:23;;;;;;;11.48;7.65;;;;;;;;;;10075708;28;20134;-68
2024/03/29 03:31:16;;;;;;;9.65;5.72;;;;;;;;;;10066472;28;20118;-68
2024/03/29 03:36:09;;;;;;;13.85;6.05;;;;;;;;;;10060525;28;20059;-67
2024/03/29 03:41:02;;;;;;;11.10;5.72;;;;;;;;;;10066914;28;20045;-68
2024/03/29 03:45:54;;;;;;;11.02;6.60;;;;;;;;;;10067004;28;20537;-68
2024/03/29 03:50:47;;;;;;;12.07;6.25;;;;;;;;;;10071703;28;20076;-68
2024/03/29 03:55:39;;;;;;;14.73;7.18;;;;;;;;;;10088961;28;20120;-69
2024/03/29 04:00:32;;;;;;;21.38;8.02;;;;;;;;;;10082100;28;20065;-68
2024/03/29 04:05:26;;;;;;;12.75;6.70;;;;;;;;;;10076127;28;20056;-68
2024/03/29 04:10:19;;;;;;;12.95;5.47;;;;;;;;;;10090208;28;20053;-68
2024/03/29 04:15:11;;;;;;;16.80;6.15;;;;;;;;;;10076474;28;20059;-68
2024/03/29 04:20:05;;;;;;;6.75;4.93;;;;;;;;;;10080124;28;20057;-68
2024/03/29 04:24:58;;;;;;;14.57;6.82;;;;;;;;;;10070866;28;20394;-68
2024/03/29 04:29:54;;;;;;;9.57;5.53;;;;;;;;;;10081692;28;20132;-67
2024/03/29 04:35:07;;;;;;;12.68;5.90;;;;;;;;;;10072662;28;20394;-68
2024/03/29 04:40:00;;;;;;;10.68;8.27;;;;;;;;;;10087897;28;20497;-67
2024/03/29 04:44:53;;;;;;;11.65;7.00;;;;;;;;;;10084753;28;20054;-69
2024/03/29 04:49:46;;;;;;;13.15;6.82;;;;;;;;;;10078131;28;20201;-69
2024/03/29 04:54:39;;;;;;;14.13;6.43;;;;;;;;;;10095380;28;20557;-68
2024/03/29 04:59:32;;;;;;;10.50;6.63;;;;;;;;;;10089704;28;20059;-69
2024/03/29 05:04:27;;;;;;;15.63;7.28;;;;;;;;;;10096710;28;20060;-68
2024/03/29 05:09:20;;;;;;;15.82;6.30;;;;;;;;;;10088994;28;20136;-68
2024/03/29 05:14:18;;;;;;;11.38;6.30;;;;;;;;;;10073349;28;20061;-68
2024/03/29 05:19:11;;;;;;;14.57;6.30;;;;;;;;;;10079069;28;20045;-67
2024/03/29 05:24:05;;;;;;;17.95;8.55;;;;;;;;;;10076046;28;20046;-68
2024/03/29 05:28:58;;;;;;;21.67;15.65;;;;;;;;;;10081477;28;20567;-68
2024/03/29 05:33:50;;;;;;;28.40;19.45;;;;;;;;;;10079725;28;20060;-68
2024/03/29 05:38:43;;;;;;;30.48;24.52;;;;;;;;;;10091022;28;20053;-68
2024/03/29 05:43:36;;;;;;;29.08;22.95;;;;;;;;;;10083371;28;20497;-68
2024/03/29 05:48:29;;;;;;;66.60;26.48;;;;;;;;;;10083981;28;20054;-69
2024/03/29 05:53:22;;;;;;;112.55;29.08;;;;;;;;;;10077329;28;20607;-67
2024/03/29 05:58:17;;;;;;;88.60;33.90;;;;;;;;;;10059779;28;20086;-67
2024/03/29 06:03:10;;;;;;;85.47;40.40;;;;;;;;;;10083122;28;20110;-68
2024/03/29 06:08:05;;;;;;;89.70;45.22;;;;;;;;;;10077375;28;20448;-67
2024/03/29 06:13:07;;;;;;;194.27;32.60;;;;;;;;;;10087169;28;20390;-68
2024/03/29 06:17:59;;;;;;;95.25;27.55;;;;;;;;;;10087117;28;20079;-67
2024/03/29 06:22:51;;;;;;;112.00;30.55;;;;;;;;;;10082453;28;20071;-68
2024/03/29 06:27:47;;;;;;;58.75;27.63;;;;;;;;;;10084283;28;20509;-67
2024/03/29 06:32:39;;;;;;;79.88;31.48;;;;;;;;;;10084114;28;20063;-67
2024/03/29 06:37:31;;;;;;;100.88;29.13;;;;;;;;;;10087027;28;20057;-66
2024/03/29 06:42:24;;;;;;;80.30;30.23;;;;;;;;;;10076334;28;20132;-67
2024/03/29 06:47:17;;;;;;;45.35;29.60;;;;;;;;;;10081096;28;20061;-67
2024/03/29 06:52:10;;;;;;;65.18;28.02;;;;;;;;;;10083815;28;20083;-67
2024/03/29 06:57:02;;;;;;;93.20;35.08;;;;;;;;;;10087672;28;20173;-67
2024/03/29 07:01:55;;;;;;;114.80;42.80;;;;;;;;;;10088306;28;20051;-67
2024/03/29 07:06:50;;;;;;;113.43;42.85;;;;;;;;;;10070958;28;20075;-66
2024/03/29 07:11:43;;;;;;;103.10;45.25;;;;;;;;;;10072989;28;20084;-66
2024/03/29 07:16:35;;;;;;;78.03;39.90;;;;;;;;;;10069627;28;20442;-66
2024/03/29 07:21:28;;;;;;;88.25;44.72;;;;;;;;;;10078798;28;20068;-67
2024/03/29 07:26:21;;;;;;;99.35;40.90;;;;;;;;;;10072582;28;20059;-67
2024/03/29 07:31:14;;;;;;;76.70;40.58;;;;;;;;;;10072038;28;20053;-67
2024/03/29 07:36:09;;;;;;;64.82;38.63;;;;;;;;;;10065929;28;20054;-66
2024/03/29 07:41:01;;;;;;;100.55;38.47;;;;;;;;;;10078314;28;20468;-67
2024/03/29 07:45:54;;;;;;;71.75;35.60;;;;;;;;;;10059443;28;20045;-67
2024/03/29 07:50:47;;;;;;;90.32;36.33;;;;;;;;;;10073888;28;20053;-67
2024/03/29 07:55:41;;;;;;;77.60;33.20;;;;;;;;;;10077092;28;20082;-67
2024/03/29 08:00:33;;;;;;;61.80;32.00;;;;;;;;;;10075744;28;20127;-67
2024/03/29 08:05:25;;;;;;;69.75;31.85;;;;;;;;;;10099712;28;20045;-69
2024/03/29 08:10:17;;;;;;;52.10;33.40;;;;;;;;;;10102305;28;20138;-69
2024/03/29 08:15:10;;;;;;;37.17;26.42;;;;;;;;;;10090033;28;20059;-70
2024/03/29 08:20:03;;;;;;;32.80;23.13;;;;;;;;;;10102706;28;20045;-68
2024/03/29 08:24:57;;;;;;;33.10;24.98;;;;;;;;;;10109269;28;20055;-69
2024/03/29 08:29:50;;;;;;;38.10;24.75;;;;;;;;;;10097395;28;20049;-68
2024/03/29 08:34:42;;;;;;;36.13;25.98;;;;;;;;;;10107321;28;20412;-68
2024/03/29 08:39:37;;;;;;;30.45;22.42;;;;;;;;;;10105359;28;20424;-69
2024/03/29 08:44:30;;;;;;;44.90;27.70;;;;;;;;;;10097977;28;20573;-68
2024/03/29 08:49:23;;;;;;;32.13;23.05;;;;;;;;;;10109935;28;20049;-69
2024/03/29 08:54:15;;;;;;;30.50;22.90;;;;;;;;;;10101279;28;20132;-68
2024/03/29 08:59:09;;;;;;;45.42;22.08;;;;;;;;;;10109267;28;20056;-69
2024/03/29 09:04:03;;;;;;;35.88;23.77;;;;;;;;;;10102666;28;20048;-69
2024/03/29 09:08:55;;;;;;;34.42;23.95;;;;;;;;;;10108656;28;20052;-69
2024/03/29 09:13:48;;;;;;;88.28;25.92;;;;;;;;;;10117371;28;20152;-69
2024/03/29 09:18:39;;;;;;;31.33;25.10;;;;;;;;;;10108393;28;20037;-68
2024/03/29 09:23:32;;;;;;;34.67;24.20;;;;;;;;;;10106511;28;20444;-68
2024/03/29 09:28:25;;;;;;;34.15;24.75;;;;;;;;;;10107033;28;21093;-69
2024/03/29 09:33:18;;;;;;;35.95;24.50;;;;;;;;;;10099442;28;20508;-69
2024/03/29 09:38:10;;;;;;;35.90;25.23;;;;;;;;;;10108778;28;20059;-68
2024/03/29 09:43:03;;;;;;;36.60;26.90;;;;;;;;;;10104525;28;20053;-68
2024/03/29 09:47:57;;;;;;;38.97;27.08;;;;;;;;;;10106904;28;20060;-68
2024/03/29 09:52:50;;;;;;;35.88;26.23;;;;;;;;;;10090627;28;20052;-69
2024/03/29 09:57:43;;;;;;;38.72;27.92;;;;;;;;;;10090265;28;20057;-67
2024/03/29 10:02:36;;;;;;;39.72;27.25;;;;;;;;;;10089821;28;20158;-68
2024/03/29 10:07:29;;;;;;;37.40;28.20;;;;;;;;;;10089551;28;20532;-67
2024/03/29 10:12:21;;;;;;;31.65;25.50;;;;;;;;;;10090107;28;20140;-67
2024/03/29 10:17:14;;;;;;;37.40;30.02;;;;;;;;;;10072121;28;20508;-68
2024/03/29 10:22:08;;;;;;;42.33;30.20;;;;;;;;;;10071364;28;20038;-66
2024/03/29 10:27:00;;;;;;;37.67;29.38;;;;;;;;;;10065687;28;20047;-66
2024/03/29 10:31:53;;;;;;;46.75;34.95;;;;;;;;;;10071917;28;20046;-67
2024/03/29 10:36:47;;;;;;;47.53;36.40;;;;;;;;;;10062966;28;20045;-71
2024/03/29 10:41:45;;;;;;;38.85;31.63;;;;;;;;;;10074215;28;20045;-67
2024/03/29 10:46:38;;;;;;;42.30;30.52;;;;;;;;;;10048105;28;20046;-66
2024/03/29 10:51:32;;;;;;;34.92;29.10;;;;;;;;;;10061576;28;20045;-67
2024/03/29 10:56:25;;;;;;;37.72;31.38;;;;;;;;;;10057674;28;20052;-67
2024/03/29 11:01:18;;;;;;;35.95;29.88;;;;;;;;;;10064281;28;20053;-67
2024/03/29 11:06:12;;;;;;;39.75;27.13;;;;;;;;;;10068778;28;20049;-68
2024/03/29 11:11:06;;;;;;;39.47;32.35;;;;;;;;;;10039966;28;20048;-69
2024/03/29 11:15:59;;;;;;;43.03;32.10;;;;;;;;;;10058051;28;20041;-68
2024/03/29 11:20:51;;;;;;;42.55;35.00;;;;;;;;;;10072938;28;20091;-67
2024/03/29 11:25:55;;;;;;;42.03;34.60;;;;;;;;;;10046912;28;20065;-69
2024/03/29 11:30:47;;;;;;;41.50;35.80;;;;;;;;;;10067227;28;20052;-67
2024/03/29 11:35:44;;;;;;;40.15;35.80;;;;;;;;;;10066253;28;20049;-67
2024/03/29 11:40:38;;;;;;;38.90;31.40;;;;;;;;;;10065481;28;20052;-67
2024/03/29 11:45:34;;;;;;;36.35;32.50;;;;;;;;;;10069302;28;20041;-67
2024/03/29 11:50:26;;;;;;;42.95;32.90;;;;;;;;;;10088035;28;20076;-67
2024/03/29 11:55:19;;;;;;;37.95;33.20;;;;;;;;;;10084227;28;20069;-67
2024/03/29 12:00:13;;;;;;;40.70;31.05;;;;;;;;;;10078355;28;20064;-67
2024/03/29 12:05:11;;;;;;;41.42;32.13;;;;;;;;;;10085453;28;20060;-67
2024/03/29 12:10:04;;;;;;;36.47;31.52;;;;;;;;;;10099803;28;20041;-67
2024/03/29 12:14:56;;;;;;;35.50;31.10;;;;;;;;;;10085434;28;20034;-68
2024/03/29 12:19:50;;;;;;;32.80;27.92;;;;;;;;;;10094115;28;20575;-67
2024/03/29 12:24:43;;;;;;;31.15;27.00;;;;;;;;;;10086624;28;20131;-68
2024/03/29 12:29:35;;;;;;;30.92;27.70;;;;;;;;;;10097039;28;20055;-66
2024/03/29 12:34:28;;;;;;;36.05;28.92;;;;;;;;;;10072051;28;20101;-66
2024/03/29 12:39:20;;;;;;;32.72;29.40;;;;;;;;;;10090814;28;20112;-65
2024/03/29 12:44:13;;;;;;;40.83;33.90;;;;;;;;;;10085526;28;20050;-65
2024/03/29 12:49:06;;;;;;;30.73;27.25;;;;;;;;;;10087494;28;20140;-65
2024/03/29 12:54:03;;;;;;;29.80;26.15;;;;;;;;;;10072208;28;20501;-66
2024/03/29 12:58:56;;;;;;;38.10;30.33;;;;;;;;;;10084319;28;20055;-66
2024/03/29 13:03:48;;;;;;;31.90;26.40;;;;;;;;;;10089290;28;20144;-65
2024/03/29 13:08:41;;;;;;;30.77;27.67;;;;;;;;;;10104489;28;20053;-67
2024/03/29 13:13:33;;;;;;;32.83;24.55;;;;;;;;;;10108709;28;20102;-66
2024/03/29 13:18:26;;;;;;;29.17;26.17;;;;;;;;;;10108704;28;20048;-66
2024/03/29 13:23:18;;;;;;;31.63;24.95;;;;;;;;;;10107215;28;20048;-66
2024/03/29 13:28:12;;;;;;;30.27;23.83;;;;;;;;;;10108929;28;20040;-66
2024/03/29 13:33:05;;;;;;;30.83;24.70;;;;;;;;;;10107365;28;20132;-66
2024/03/29 13:37:58;;;;;;;28.33;25.25;;;;;;;;;;10100469;28;20049;-67
2024/03/29 13:42:51;;;;;;;29.13;25.52;;;;;;;;;;10102585;28;20524;-66
2024/03/29 13:47:47;;;;;;;28.52;23.83;;;;;;;;;;10107373;28;20057;-66
2024/03/29 13:52:39;;;;;;;30.65;22.50;;;;;;;;;;10090915;28;20558;-65
2024/03/29 13:57:32;;;;;;;33.08;24.90;;;;;;;;;;10090926;28;20409;-66
2024/03/29 14:02:27;;;;;;;32.28;22.77;;;;;;;;;;10090459;28;20417;-67
2024/03/29 14:07:20;;;;;;;26.00;22.02;;;;;;;;;;10088402;28;20057;-65
2024/03/29 14:12:13;;;;;;;28.25;24.50;;;;;;;;;;10082964;28;20075;-66
2024/03/29 14:17:06;;;;;;;31.65;22.48;;;;;;;;;;10089882;28;20416;-67
2024/03/29 14:21:58;;;;;;;25.08;20.23;;;;;;;;;;10087656;28;20044;-67
2024/03/29 14:26:51;;;;;;;27.98;20.42;;;;;;;;;;10086555;28;20053;-67
2024/03/29 14:31:44;;;;;;;27.17;21.67;;;;;;;;;;10086120;28;20049;-65
2024/03/29 14:36:36;;;;;;;23.08;18.77;;;;;;;;;;10085344;28;20055;-66
2024/03/29 14:41:31;;;;;;;24.63;20.30;;;;;;;;;;10081747;28;20041;-65
2024/03/29 14:46:26;;;;;;;21.10;18.85;;;;;;;;;;10081135;28;20505;-66
2024/03/29 14:51:19;;;;;;;21.85;19.33;;;;;;;;;;10064629;28;20068;-66
2024/03/29 14:56:12;;;;;;;25.73;20.00;;;;;;;;;;10074291;28;20132;-66
2024/03/29 15:01:04;;;;;;;47.60;31.02;;;;;;;;;;10096580;28;20057;-67
2024/03/29 15:05:57;;;;;;;30.08;22.83;;;;;;;;;;10071644;28;20055;-66
2024/03/29 15:11:01;;;;;;;22.10;19.60;;;;;;;;;;10029054;28;20049;-65
2024/03/29 15:15:58;;;;;;;25.33;21.60;;;;;;;;;;10034430;28;20136;-67
2024/03/29 15:21:00;;;;;;;24.25;21.52;;;;;;;;;;10057567;28;20399;-66
2024/03/29 15:25:54;;;;;;;24.40;22.00;;;;;;;;;;10040713;28;20053;-66
2024/03/29 15:30:53;;;;;;;24.80;22.23;;;;;;;;;;10031552;28;21584;-66
2024/03/29 15:35:46;;;;;;;24.38;21.88;;;;;;;;;;10025659;28;20049;-67
2024/03/29 15:40:38;;;;;;;28.15;21.67;;;;;;;;;;10035078;28;20049;-67
2024/03/29 15:45:31;;;;;;;31.73;22.77;;;;;;;;;;10040076;28;20049;-66
2024/03/29 15:50:24;;;;;;;27.88;23.55;;;;;;;;;;10057204;28;20061;-67
2024/03/29 15:55:17;;;;;;;28.50;23.38;;;;;;;;;;10045038;28;20050;-67
2024/03/29 16:00:13;;;;;;;25.63;22.90;;;;;;;;;;10043742;28;20120;-66
2024/03/29 16:05:07;;;;;;;28.38;24.77;;;;;;;;;;10037832;28;20045;-67
2024/03/29 16:10:02;;;;;;;25.77;20.45;;;;;;;;;;10060415;28;20054;-67
2024/03/29 16:14:54;;;;;;;25.20;21.55;;;;;;;;;;10061374;28;20049;-66
2024/03/29 16:19:47;;;;;;;29.02;22.10;;;;;;;;;;10063069;28;20071;-67
2024/03/29 16:24:39;;;;;;;24.65;21.77;;;;;;;;;;10046314;28;20041;-67
2024/03/29 16:29:31;;;;;;;37.33;30.80;;;;;;;;;;10062576;28;20053;-65
2024/03/29 16:34:24;;;;;;;28.33;24.63;;;;;;;;;;10043403;28;20085;-66
2024/03/29 16:39:16;;;;;;;31.38;23.75;;;;;;;;;;10061799;28;20049;-66
2024/03/29 16:44:09;;;;;;;34.05;24.98;;;;;;;;;;10049728;28;20092;-66
2024/03/29 16:49:01;;;;;;;30.58;26.65;;;;;;;;;;10053981;28;20049;-66
2024/03/29 16:53:53;;;;;;;29.58;25.67;;;;;;;;;;10053153;28;20467;-66
2024/03/29 16:58:46;;;;;;;36.08;27.27;;;;;;;;;;10046745;28;20084;-67
2024/03/29 17:03:39;;;;;;;30.65;24.70;;;;;;;;;;10064834;28;20072;-67
2024/03/29 17:08:31;;;;;;;32.28;27.80;;;;;;;;;;10050402;28;20049;-67
2024/03/29 17:13:24;;;;;;;31.55;25.75;;;;;;;;;;10061985;28;20058;-66
2024/03/29 17:18:17;;;;;;;31.25;27.00;;;;;;;;;;10068232;28;20041;-66
2024/03/29 17:23:09;;;;;;;34.70;26.88;;;;;;;;;;10050470;28;20128;-67
2024/03/29 17:28:01;;;;;;;44.05;30.33;;;;;;;;;;10062744;28;20045;-67
2024/03/29 17:32:54;;;;;;;41.72;30.33;;;;;;;;;;10052336;28;20053;-67
2024/03/29 17:37:46;;;;;;;29.90;26.63;;;;;;;;;;10052516;28;20441;-67
2024/03/29 17:42:39;;;;;;;40.58;32.95;;;;;;;;;;10052559;28;20051;-67
2024/03/29 17:47:32;;;;;;;31.60;27.98;;;;;;;;;;10047497;28;20049;-67
2024/03/29 17:52:25;;;;;;;36.50;31.05;;;;;;;;;;10062420;28;20065;-68
2024/03/29 17:57:17;;;;;;;38.85;31.70;;;;;;;;;;10051125;28;20054;-68
2024/03/29 18:02:10;;;;;;;39.88;31.00;;;;;;;;;;10051361;28;20053;-68
2024/03/29 18:07:03;;;;;;;43.70;34.05;;;;;;;;;;10049994;28;20060;-67
2024/03/29 18:11:55;;;;;;;40.72;35.58;;;;;;;;;;10043180;28;20071;-67
2024/03/29 18:16:48;;;;;;;42.92;32.22;;;;;;;;;;10044685;28;20084;-67
2024/03/29 18:21:42;;;;;;;44.65;36.30;;;;;;;;;;10051009;28;20045;-68
2024/03/29 18:26:35;;;;;;;51.50;37.72;;;;;;;;;;10051115;28;20069;-67
2024/03/29 18:31:29;;;;;;;44.88;32.28;;;;;;;;;;10050581;28;20050;-67
2024/03/29 18:36:22;;;;;;;37.70;30.52;;;;;;;;;;10050751;28;20053;-67
2024/03/29 18:41:15;;;;;;;45.88;32.47;;;;;;;;;;10052479;28;20049;-69
2024/03/29 18:46:08;;;;;;;41.95;33.83;;;;;;;;;;10048700;28;20098;-68
2024/03/29 18:51:00;;;;;;;39.13;32.33;;;;;;;;;;10064784;28;20080;-68
2024/03/29 18:55:59;;;;;;;35.92;29.23;;;;;;;;;;10065220;28;20460;-67
2024/03/29 19:00:51;;;;;;;44.28;30.02;;;;;;;;;;10039688;28;20498;-67
2024/03/29 19:05:43;;;;;;;34.22;29.42;;;;;;;;;;10038881;28;20049;-66
2024/03/29 19:10:36;;;;;;;35.47;30.90;;;;;;;;;;10045603;28;20057;-67
2024/03/29 19:15:28;;;;;;;41.33;29.73;;;;;;;;;;10042266;28;20102;-68
2024/03/29 19:20:20;;;;;;;33.45;26.85;;;;;;;;;;10046691;28;20143;-67
2024/03/29 19:25:14;;;;;;;34.35;28.90;;;;;;;;;;10043203;28;20183;-66
2024/03/29 19:30:08;;;;;;;39.22;29.90;;;;;;;;;;10040357;28;20038;-67
2024/03/29 19:35:01;;;;;;;41.45;27.77;;;;;;;;;;10054418;28;20072;-68
2024/03/29 19:39:54;;;;;;;35.95;27.48;;;;;;;;;;10025374;28;20038;-67
2024/03/29 19:44:47;;;;;;;39.50;28.73;;;;;;;;;;10022325;28;20042;-66
2024/03/29 19:49:39;;;;;;;29.55;24.60;;;;;;;;;;10041451;28;20060;-66
2024/03/29 19:54:31;;;;;;;41.65;34.25;;;;;;;;;;10063022;28;20049;-67
2024/03/29 19:59:24;;;;;;;32.95;26.70;;;;;;;;;;10068620;28;20057;-67
2024/03/29 20:04:16;;;;;;;36.42;28.55;;;;;;;;;;10043866;28;20095;-68
2024/03/29 20:09:09;;;;;;;41.78;30.77;;;;;;;;;;10062229;28;20057;-67
2024/03/29 20:14:02;;;;;;;39.30;30.92;;;;;;;;;;10078624;28;20045;-67
2024/03/29 20:18:59;;;;;;;41.20;30.33;;;;;;;;;;10061076;28;20053;-67
2024/03/29 20:23:51;;;;;;;36.60;28.80;;;;;;;;;;10070547;28;20126;-64
2024/03/29 20:28:44;;;;;;;36.65;29.38;;;;;;;;;;10080800;28;20050;-62
2024/03/29 20:33:37;;;;;;;38.03;29.58;;;;;;;;;;10064796;28;20050;-62
2024/03/29 20:38:29;;;;;;;33.95;28.65;;;;;;;;;;10071322;28;20063;-62
2024/03/29 20:43:21;;;;;;;34.72;29.05;;;;;;;;;;10087731;28;20052;-64
2024/03/29 20:48:13;;;;;;;35.38;27.45;;;;;;;;;;10087815;28;20064;-63
2024/03/29 20:53:06;;;;;;;40.78;29.45;;;;;;;;;;10054591;28;20057;-63
2024/03/29 20:57:58;;;;;;;33.72;24.35;;;;;;;;;;10070749;28;20042;-63
2024/03/29 21:08:01;;;;;;;28.75;23.15;;;;;;;;;;10066518;28;20563;-63
2024/03/29 21:12:54;;;;;;;31.10;20.85;;;;;;;;;;10051803;28;20045;-65
2024/03/29 21:17:47;;;;;;;27.92;21.08;;;;;;;;;;10051739;28;20046;-64
2024/03/29 21:22:41;;;;;;;37.40;21.23;;;;;;;;;;10069912;28;20053;-63
2024/03/29 21:27:33;;;;;;;29.13;21.33;;;;;;;;;;10068687;28;20081;-64
2024/03/29 21:32:26;;;;;;;27.20;19.83;;;;;;;;;;10069444;28;20497;-64
2024/03/29 21:37:18;;;;;;;30.67;20.02;;;;;;;;;;10065541;28;20053;-68
2024/03/29 21:42:12;;;;;;;31.00;18.50;;;;;;;;;;10046686;28;20053;-66
2024/03/29 21:47:08;;;;;;;34.95;17.88;;;;;;;;;;10044278;28;20425;-67
2024/03/29 21:52:01;;;;;;;30.77;15.68;;;;;;;;;;10059383;28;20432;-66
2024/03/29 21:56:53;;;;;;;29.88;18.88;;;;;;;;;;10043278;28;20042;-65
2024/03/29 22:01:45;;;;;;;21.00;15.77;;;;;;;;;;10066426;28;20084;-67
2024/03/29 22:06:39;;;;;;;22.90;14.70;;;;;;;;;;10047790;28;20049;-67
2024/03/29 22:11:32;;;;;;;17.90;12.35;;;;;;;;;;10064437;28;20494;-68
2024/03/29 22:16:25;;;;;;;27.83;12.00;;;;;;;;;;10057941;28;20532;-67
2024/03/29 22:21:17;;;;;;;25.25;12.38;;;;;;;;;;10049733;28;20073;-68
2024/03/29 22:26:10;;;;;;;26.63;12.40;;;;;;;;;;10060938;28;20060;-67
2024/03/29 22:31:02;;;;;;;19.92;9.75;;;;;;;;;;10064996;28;20056;-67
2024/03/29 22:35:55;;;;;;;19.02;11.38;;;;;;;;;;10064828;28;20115;-67
2024/03/29 22:40:48;;;;;;;17.92;10.00;;;;;;;;;;10048238;28;20877;-67
2024/03/29 22:45:41;;;;;;;17.33;9.18;;;;;;;;;;10046956;28;20045;-68
2024/03/29 22:50:33;;;;;;;17.13;10.45;;;;;;;;;;10059565;28;20423;-68
2024/03/29 22:55:25;;;;;;;21.52;13.18;;;;;;;;;;10064400;28;20052;-68
2024/03/29 23:00:22;;;;;;;25.88;15.00;;;;;;;;;;10080468;28;20045;-68
2024/03/29 23:05:15;;;;;;;26.00;14.65;;;;;;;;;;10076916;28;20244;-66
2024/03/29 23:10:07;;;;;;;21.63;15.60;;;;;;;;;;10059866;28;20041;-67
2024/03/29 23:15:00;;;;;;;23.02;15.98;;;;;;;;;;10076153;28;20506;-68
2024/03/29 23:19:52;;;;;;;24.95;18.42;;;;;;;;;;10058031;28;20071;-66
2024/03/29 23:24:46;;;;;;;30.13;23.00;;;;;;;;;;10062887;28;20056;-66
2024/03/29 23:29:39;;;;;;;34.33;25.02;;;;;;;;;;10059431;28;20050;-67
2024/03/29 23:34:33;;;;;;;38.83;28.63;;;;;;;;;;10060136;28;20084;-68
2024/03/29 23:39:30;;;;;;;32.75;27.27;;;;;;;;;;10062605;28;20065;-67
2024/03/29 23:44:23;;;;;;;43.50;29.00;;;;;;;;;;10071234;28;20053;-68
2024/03/29 23:49:16;;;;;;;38.28;28.92;;;;;;;;;;10043932;28;20100;-68
2024/03/29 23:54:09;;;;;;;38.67;32.08;;;;;;;;;;10044381;28;20132;-68
2024/03/29 23:59:02;;;;;;;45.08;33.45;;;;;;;;;;10059329;28;20501;-68
